sensor_id;sensor_type;location;lat;lon;timestamp;P1;durP1;ratioP1;P2;durP2;ratioP2
42110;SDS011;27766;52.174;5.456;2023-02-28T00:01:46;8.70;;;3.50;;
42110;SDS011;27766;52.174;5.456;2023-02-28T00:04:14;4.53;;;3.38;;
42110;SDS011;27766;52.174;5.456;2023-02-28T00:06:41;7.18;;;3.38;;
42110;SDS011;27766;52.174;5.456;2023-02-28T00:09:08;4.50;;;3.08;;
42110;SDS011;27766;52.174;5.456;2023-02-28T00:11:35;5.55;;;3.05;;
42110;SDS011;27766;52.174;5.456;2023-02-28T00:14:04;4.03;;;3.05;;
42110;SDS011;27766;52.174;5.456;2023-02-28T00:16:31;5.63;;;2.60;;
42110;SDS011;27766;52.174;5.456;2023-02-28T00:18:58;4.80;;;3.20;;
42110;SDS011;27766;52.174;5.456;2023-02-28T00:21:25;6.32;;;3.58;;
42110;SDS011;27766;52.174;5.456;2023-02-28T00:23:53;6.65;;;3.17;;
42110;SDS011;27766;52.174;5.456;2023-02-28T00:26:20;5.72;;;3.20;;
42110;SDS011;27766;52.174;5.456;2023-02-28T00:28:47;10.98;;;3.03;;
42110;SDS011;27766;52.174;5.456;2023-02-28T00:31:15;7.43;;;3.50;;
42110;SDS011;27766;52.174;5.456;2023-02-28T00:33:42;4.68;;;3.10;;
42110;SDS011;27766;52.174;5.456;2023-02-28T00:36:10;4.10;;;2.80;;
42110;SDS011;27766;52.174;5.456;2023-02-28T00:38:38;4.72;;;3.08;;
42110;SDS011;27766;52.174;5.456;2023-02-28T00:41:06;8.82;;;3.70;;
42110;SDS011;27766;52.174;5.456;2023-02-28T00:43:35;5.65;;;2.63;;
42110;SDS011;27766;52.174;5.456;2023-02-28T00:46:03;4.07;;;2.42;;
42110;SDS011;27766;52.174;5.456;2023-02-28T00:48:31;4.85;;;3.05;;
42110;SDS011;27766;52.174;5.456;2023-02-28T00:50:59;4.20;;;2.88;;
42110;SDS011;27766;52.174;5.456;2023-02-28T00:53:27;6.38;;;3.05;;
42110;SDS011;27766;52.174;5.456;2023-02-28T00:55:54;8.73;;;3.58;;
42110;SDS011;27766;52.174;5.456;2023-02-28T00:58:21;6.20;;;2.97;;
42110;SDS011;27766;52.174;5.456;2023-02-28T01:00:49;9.02;;;2.95;;
42110;SDS011;27766;52.174;5.456;2023-02-28T01:03:18;4.20;;;2.85;;
42110;SDS011;27766;52.174;5.456;2023-02-28T01:05:46;4.40;;;2.67;;
42110;SDS011;27766;52.174;5.456;2023-02-28T01:08:14;5.93;;;3.15;;
42110;SDS011;27766;52.174;5.456;2023-02-28T01:10:41;7.10;;;2.67;;
42110;SDS011;27766;52.174;5.456;2023-02-28T01:13:09;3.83;;;3.13;;
42110;SDS011;27766;52.174;5.456;2023-02-28T01:15:36;5.78;;;3.00;;
42110;SDS011;27766;52.174;5.456;2023-02-28T01:18:04;4.38;;;3.00;;
42110;SDS011;27766;52.174;5.456;2023-02-28T01:20:31;3.38;;;2.50;;
42110;SDS011;27766;52.174;5.456;2023-02-28T01:22:58;6.13;;;2.90;;
42110;SDS011;27766;52.174;5.456;2023-02-28T01:25:25;7.55;;;2.50;;
42110;SDS011;27766;52.174;5.456;2023-02-28T01:27:53;4.10;;;2.38;;
42110;SDS011;27766;52.174;5.456;2023-02-28T01:30:20;5.63;;;3.38;;
42110;SDS011;27766;52.174;5.456;2023-02-28T01:32:47;8.75;;;2.85;;
42110;SDS011;27766;52.174;5.456;2023-02-28T01:35:14;5.45;;;2.90;;
42110;SDS011;27766;52.174;5.456;2023-02-28T01:37:41;7.50;;;3.13;;
42110;SDS011;27766;52.174;5.456;2023-02-28T01:40:08;7.38;;;3.20;;
42110;SDS011;27766;52.174;5.456;2023-02-28T01:42:36;5.32;;;3.20;;
42110;SDS011;27766;52.174;5.456;2023-02-28T01:45:25;3.70;;;2.60;;
42110;SDS011;27766;52.174;5.456;2023-02-28T01:48:04;4.18;;;3.00;;
42110;SDS011;27766;52.174;5.456;2023-02-28T01:50:35;9.45;;;2.95;;
42110;SDS011;27766;52.174;5.456;2023-02-28T01:53:07;3.95;;;2.80;;
42110;SDS011;27766;52.174;5.456;2023-02-28T01:55:49;9.55;;;3.22;;
42110;SDS011;27766;52.174;5.456;2023-02-28T01:58:18;5.57;;;2.80;;
42110;SDS011;27766;52.174;5.456;2023-02-28T02:00:46;7.90;;;3.45;;
42110;SDS011;27766;52.174;5.456;2023-02-28T02:03:13;11.52;;;2.97;;
42110;SDS011;27766;52.174;5.456;2023-02-28T02:05:45;3.85;;;2.63;;
42110;SDS011;27766;52.174;5.456;2023-02-28T02:08:18;5.72;;;3.45;;
42110;SDS011;27766;52.174;5.456;2023-02-28T02:10:52;5.80;;;2.88;;
42110;SDS011;27766;52.174;5.456;2023-02-28T02:19:13;5.28;;;2.95;;
42110;SDS011;27766;52.174;5.456;2023-02-28T02:30:48;9.93;;;3.60;;
42110;SDS011;27766;52.174;5.456;2023-02-28T02:36:12;3.80;;;2.65;;
42110;SDS011;27766;52.174;5.456;2023-02-28T02:38:57;6.18;;;2.88;;
42110;SDS011;27766;52.174;5.456;2023-02-28T02:41:37;8.20;;;3.42;;
42110;SDS011;27766;52.174;5.456;2023-02-28T02:44:30;6.05;;;3.20;;
42110;SDS011;27766;52.174;5.456;2023-02-28T02:47:13;5.43;;;3.22;;
42110;SDS011;27766;52.174;5.456;2023-02-28T02:49:45;7.00;;;2.70;;
42110;SDS011;27766;52.174;5.456;2023-02-28T02:52:17;8.15;;;2.60;;
42110;SDS011;27766;52.174;5.456;2023-02-28T02:54:48;6.35;;;3.08;;
42110;SDS011;27766;52.174;5.456;2023-02-28T02:57:23;7.00;;;3.53;;
42110;SDS011;27766;52.174;5.456;2023-02-28T02:59:57;7.35;;;3.15;;
42110;SDS011;27766;52.174;5.456;2023-02-28T03:02:27;5.20;;;3.05;;
42110;SDS011;27766;52.174;5.456;2023-02-28T03:07:47;6.45;;;3.25;;
42110;SDS011;27766;52.174;5.456;2023-02-28T03:25:04;6.78;;;3.10;;
42110;SDS011;27766;52.174;5.456;2023-02-28T03:32:55;8.05;;;2.95;;
42110;SDS011;27766;52.174;5.456;2023-02-28T03:35:28;6.43;;;3.42;;
42110;SDS011;27766;52.174;5.456;2023-02-28T03:41:03;9.52;;;3.38;;
42110;SDS011;27766;52.174;5.456;2023-02-28T03:43:37;4.90;;;3.05;;
42110;SDS011;27766;52.174;5.456;2023-02-28T03:46:09;5.85;;;3.20;;
42110;SDS011;27766;52.174;5.456;2023-02-28T03:48:44;5.07;;;2.90;;
42110;SDS011;27766;52.174;5.456;2023-02-28T03:51:16;6.45;;;3.63;;
42110;SDS011;27766;52.174;5.456;2023-02-28T03:53:50;10.38;;;3.75;;
42110;SDS011;27766;52.174;5.456;2023-02-28T03:56:22;4.70;;;3.67;;
42110;SDS011;27766;52.174;5.456;2023-02-28T03:59:12;6.07;;;3.95;;
42110;SDS011;27766;52.174;5.456;2023-02-28T04:01:45;6.75;;;3.08;;
42110;SDS011;27766;52.174;5.456;2023-02-28T04:04:15;5.90;;;3.60;;
42110;SDS011;27766;52.174;5.456;2023-02-28T04:06:43;4.68;;;3.47;;
42110;SDS011;27766;52.174;5.456;2023-02-28T04:09:13;5.28;;;3.33;;
42110;SDS011;27766;52.174;5.456;2023-02-28T04:11:44;4.82;;;3.53;;
42110;SDS011;27766;52.174;5.456;2023-02-28T04:14:15;4.78;;;3.42;;
42110;SDS011;27766;52.174;5.456;2023-02-28T04:16:42;8.30;;;3.67;;
42110;SDS011;27766;52.174;5.456;2023-02-28T04:19:10;4.72;;;3.17;;
42110;SDS011;27766;52.174;5.456;2023-02-28T04:21:42;6.45;;;3.55;;
42110;SDS011;27766;52.174;5.456;2023-02-28T04:24:11;4.53;;;3.05;;
42110;SDS011;27766;52.174;5.456;2023-02-28T04:26:45;5.57;;;3.30;;
42110;SDS011;27766;52.174;5.456;2023-02-28T04:29:18;4.85;;;2.45;;
42110;SDS011;27766;52.174;5.456;2023-02-28T04:31:49;3.70;;;2.60;;
42110;SDS011;27766;52.174;5.456;2023-02-28T04:34:17;3.05;;;2.05;;
42110;SDS011;27766;52.174;5.456;2023-02-28T04:36:45;4.72;;;2.40;;
42110;SDS011;27766;52.174;5.456;2023-02-28T04:39:12;2.10;;;1.90;;
42110;SDS011;27766;52.174;5.456;2023-02-28T04:41:40;2.75;;;2.25;;
42110;SDS011;27766;52.174;5.456;2023-02-28T04:44:07;3.53;;;2.35;;
42110;SDS011;27766;52.174;5.456;2023-02-28T04:46:34;5.50;;;2.10;;
42110;SDS011;27766;52.174;5.456;2023-02-28T04:49:01;5.22;;;2.22;;
42110;SDS011;27766;52.174;5.456;2023-02-28T04:51:28;2.78;;;1.98;;
42110;SDS011;27766;52.174;5.456;2023-02-28T04:53:56;6.68;;;2.15;;
42110;SDS011;27766;52.174;5.456;2023-02-28T04:56:24;4.03;;;1.95;;
42110;SDS011;27766;52.174;5.456;2023-02-28T04:58:51;8.50;;;2.05;;
42110;SDS011;27766;52.174;5.456;2023-02-28T05:01:23;4.43;;;1.98;;
42110;SDS011;27766;52.174;5.456;2023-02-28T05:03:54;2.55;;;1.70;;
42110;SDS011;27766;52.174;5.456;2023-02-28T05:06:23;8.52;;;2.72;;
42110;SDS011;27766;52.174;5.456;2023-02-28T05:08:51;3.80;;;2.45;;
42110;SDS011;27766;52.174;5.456;2023-02-28T05:11:29;2.38;;;2.08;;
42110;SDS011;27766;52.174;5.456;2023-02-28T05:14:02;4.47;;;2.47;;
42110;SDS011;27766;52.174;5.456;2023-02-28T05:16:31;5.30;;;3.00;;
42110;SDS011;27766;52.174;5.456;2023-02-28T05:18:59;11.68;;;5.00;;
42110;SDS011;27766;52.174;5.456;2023-02-28T05:21:30;8.27;;;3.75;;
42110;SDS011;27766;52.174;5.456;2023-02-28T05:24:00;6.87;;;4.53;;
42110;SDS011;27766;52.174;5.456;2023-02-28T05:26:29;3.88;;;3.20;;
42110;SDS011;27766;52.174;5.456;2023-02-28T05:28:58;4.22;;;2.78;;
42110;SDS011;27766;52.174;5.456;2023-02-28T05:31:25;3.53;;;2.55;;
42110;SDS011;27766;52.174;5.456;2023-02-28T05:33:53;3.30;;;2.15;;
42110;SDS011;27766;52.174;5.456;2023-02-28T05:36:20;11.73;;;3.35;;
42110;SDS011;27766;52.174;5.456;2023-02-28T05:38:48;5.25;;;2.75;;
42110;SDS011;27766;52.174;5.456;2023-02-28T05:41:16;4.75;;;3.15;;
42110;SDS011;27766;52.174;5.456;2023-02-28T05:43:46;6.35;;;2.70;;
42110;SDS011;27766;52.174;5.456;2023-02-28T05:46:13;5.15;;;3.13;;
42110;SDS011;27766;52.174;5.456;2023-02-28T05:48:41;4.30;;;2.78;;
42110;SDS011;27766;52.174;5.456;2023-02-28T05:51:09;5.03;;;2.65;;
42110;SDS011;27766;52.174;5.456;2023-02-28T05:53:36;4.00;;;2.65;;
42110;SDS011;27766;52.174;5.456;2023-02-28T05:56:03;4.18;;;2.80;;
42110;SDS011;27766;52.174;5.456;2023-02-28T05:58:34;3.35;;;2.47;;
42110;SDS011;27766;52.174;5.456;2023-02-28T06:01:19;9.55;;;2.78;;
42110;SDS011;27766;52.174;5.456;2023-02-28T06:03:53;6.22;;;2.83;;
42110;SDS011;27766;52.174;5.456;2023-02-28T06:06:20;3.45;;;3.13;;
42110;SDS011;27766;52.174;5.456;2023-02-28T06:08:47;3.05;;;2.58;;
42110;SDS011;27766;52.174;5.456;2023-02-28T06:11:14;5.22;;;3.17;;
42110;SDS011;27766;52.174;5.456;2023-02-28T06:13:41;4.18;;;3.15;;
42110;SDS011;27766;52.174;5.456;2023-02-28T06:16:10;4.18;;;2.83;;
42110;SDS011;27766;52.174;5.456;2023-02-28T06:18:38;3.78;;;2.90;;
42110;SDS011;27766;52.174;5.456;2023-02-28T06:21:05;3.58;;;2.85;;
42110;SDS011;27766;52.174;5.456;2023-02-28T06:23:32;4.45;;;3.10;;
42110;SDS011;27766;52.174;5.456;2023-02-28T06:25:59;5.43;;;3.40;;
42110;SDS011;27766;52.174;5.456;2023-02-28T06:28:27;5.47;;;3.58;;
42110;SDS011;27766;52.174;5.456;2023-02-28T06:30:54;6.78;;;3.25;;
42110;SDS011;27766;52.174;5.456;2023-02-28T06:33:21;6.40;;;3.72;;
42110;SDS011;27766;52.174;5.456;2023-02-28T06:35:51;9.77;;;3.53;;
42110;SDS011;27766;52.174;5.456;2023-02-28T06:38:19;5.15;;;3.83;;
42110;SDS011;27766;52.174;5.456;2023-02-28T06:40:52;8.20;;;3.58;;
42110;SDS011;27766;52.174;5.456;2023-02-28T06:43:21;4.40;;;3.28;;
42110;SDS011;27766;52.174;5.456;2023-02-28T06:45:49;4.30;;;3.75;;
42110;SDS011;27766;52.174;5.456;2023-02-28T06:48:16;6.22;;;3.55;;
42110;SDS011;27766;52.174;5.456;2023-02-28T06:50:44;7.20;;;3.95;;
42110;SDS011;27766;52.174;5.456;2023-02-28T06:53:11;4.57;;;3.72;;
42110;SDS011;27766;52.174;5.456;2023-02-28T06:55:39;7.82;;;3.65;;
42110;SDS011;27766;52.174;5.456;2023-02-28T06:58:06;6.93;;;4.60;;
42110;SDS011;27766;52.174;5.456;2023-02-28T07:00:41;4.90;;;4.35;;
42110;SDS011;27766;52.174;5.456;2023-02-28T07:03:10;6.15;;;4.38;;
42110;SDS011;27766;52.174;5.456;2023-02-28T07:05:38;8.05;;;4.68;;
42110;SDS011;27766;52.174;5.456;2023-02-28T07:08:06;5.93;;;4.55;;
42110;SDS011;27766;52.174;5.456;2023-02-28T07:10:33;5.07;;;3.95;;
42110;SDS011;27766;52.174;5.456;2023-02-28T07:13:00;7.13;;;4.85;;
42110;SDS011;27766;52.174;5.456;2023-02-28T07:15:28;6.25;;;4.97;;
42110;SDS011;27766;52.174;5.456;2023-02-28T07:17:55;7.22;;;4.95;;
42110;SDS011;27766;52.174;5.456;2023-02-28T07:20:24;12.73;;;5.72;;
42110;SDS011;27766;52.174;5.456;2023-02-28T07:22:51;6.35;;;4.70;;
42110;SDS011;27766;52.174;5.456;2023-02-28T07:25:24;9.05;;;5.57;;
42110;SDS011;27766;52.174;5.456;2023-02-28T07:27:55;8.10;;;5.78;;
42110;SDS011;27766;52.174;5.456;2023-02-28T07:30:23;6.93;;;5.95;;
42110;SDS011;27766;52.174;5.456;2023-02-28T07:32:50;8.40;;;5.85;;
42110;SDS011;27766;52.174;5.456;2023-02-28T07:35:18;10.88;;;6.18;;
42110;SDS011;27766;52.174;5.456;2023-02-28T07:37:46;7.50;;;5.95;;
42110;SDS011;27766;52.174;5.456;2023-02-28T07:40:13;12.20;;;5.43;;
42110;SDS011;27766;52.174;5.456;2023-02-28T07:42:41;7.53;;;5.45;;
42110;SDS011;27766;52.174;5.456;2023-02-28T07:45:08;7.32;;;5.90;;
42110;SDS011;27766;52.174;5.456;2023-02-28T07:47:38;5.38;;;4.55;;
42110;SDS011;27766;52.174;5.456;2023-02-28T07:50:06;7.35;;;5.00;;
42110;SDS011;27766;52.174;5.456;2023-02-28T07:52:38;6.53;;;5.13;;
42110;SDS011;27766;52.174;5.456;2023-02-28T07:55:06;9.70;;;5.70;;
42110;SDS011;27766;52.174;5.456;2023-02-28T07:57:34;6.53;;;5.32;;
42110;SDS011;27766;52.174;5.456;2023-02-28T08:00:05;6.45;;;4.65;;
42110;SDS011;27766;52.174;5.456;2023-02-28T08:02:33;5.68;;;4.50;;
42110;SDS011;27766;52.174;5.456;2023-02-28T08:05:00;6.00;;;5.35;;
42110;SDS011;27766;52.174;5.456;2023-02-28T08:07:28;9.02;;;5.65;;
42110;SDS011;27766;52.174;5.456;2023-02-28T08:09:55;19.13;;;5.53;;
42110;SDS011;27766;52.174;5.456;2023-02-28T08:12:24;8.25;;;6.70;;
42110;SDS011;27766;52.174;5.456;2023-02-28T08:14:52;11.40;;;6.30;;
42110;SDS011;27766;52.174;5.456;2023-02-28T08:17:20;15.50;;;6.20;;
42110;SDS011;27766;52.174;5.456;2023-02-28T08:19:47;10.00;;;6.18;;
42110;SDS011;27766;52.174;5.456;2023-02-28T08:22:14;8.25;;;5.80;;
42110;SDS011;27766;52.174;5.456;2023-02-28T08:24:41;17.05;;;5.50;;
42110;SDS011;27766;52.174;5.456;2023-02-28T08:27:09;8.32;;;5.63;;
42110;SDS011;27766;52.174;5.456;2023-02-28T08:29:37;6.20;;;4.55;;
42110;SDS011;27766;52.174;5.456;2023-02-28T08:32:05;8.98;;;4.50;;
42110;SDS011;27766;52.174;5.456;2023-02-28T08:34:46;6.70;;;3.72;;
42110;SDS011;27766;52.174;5.456;2023-02-28T08:37:13;6.78;;;4.55;;
42110;SDS011;27766;52.174;5.456;2023-02-28T08:39:40;7.57;;;4.70;;
42110;SDS011;27766;52.174;5.456;2023-02-28T08:42:08;6.00;;;3.80;;
42110;SDS011;27766;52.174;5.456;2023-02-28T08:44:35;5.75;;;4.38;;
42110;SDS011;27766;52.174;5.456;2023-02-28T08:47:02;8.55;;;4.65;;
42110;SDS011;27766;52.174;5.456;2023-02-28T08:49:29;5.93;;;4.00;;
42110;SDS011;27766;52.174;5.456;2023-02-28T08:51:59;6.00;;;3.10;;
42110;SDS011;27766;52.174;5.456;2023-02-28T08:54:27;3.30;;;3.00;;
42110;SDS011;27766;52.174;5.456;2023-02-28T08:56:57;5.40;;;3.15;;
42110;SDS011;27766;52.174;5.456;2023-02-28T08:59:24;2.75;;;2.25;;
42110;SDS011;27766;52.174;5.456;2023-02-28T09:01:52;6.75;;;2.92;;
42110;SDS011;27766;52.174;5.456;2023-02-28T09:04:20;3.05;;;2.47;;
42110;SDS011;27766;52.174;5.456;2023-02-28T09:06:50;9.02;;;2.08;;
42110;SDS011;27766;52.174;5.456;2023-02-28T09:09:17;3.08;;;2.10;;
42110;SDS011;27766;52.174;5.456;2023-02-28T09:11:44;2.97;;;1.73;;
42110;SDS011;27766;52.174;5.456;2023-02-28T09:14:11;3.20;;;1.88;;
42110;SDS011;27766;52.174;5.456;2023-02-28T09:16:38;3.70;;;2.00;;
42110;SDS011;27766;52.174;5.456;2023-02-28T09:19:06;3.88;;;1.52;;
42110;SDS011;27766;52.174;5.456;2023-02-28T09:21:39;4.25;;;2.13;;
42110;SDS011;27766;52.174;5.456;2023-02-28T09:24:06;2.83;;;1.70;;
42110;SDS011;27766;52.174;5.456;2023-02-28T09:26:34;2.15;;;1.13;;
42110;SDS011;27766;52.174;5.456;2023-02-28T09:29:09;1.95;;;1.55;;
42110;SDS011;27766;52.174;5.456;2023-02-28T09:31:36;2.03;;;1.20;;
42110;SDS011;27766;52.174;5.456;2023-02-28T09:34:03;1.70;;;1.50;;
42110;SDS011;27766;52.174;5.456;2023-02-28T09:36:31;1.40;;;1.05;;
42110;SDS011;27766;52.174;5.456;2023-02-28T09:39:10;3.47;;;1.42;;
42110;SDS011;27766;52.174;5.456;2023-02-28T09:41:41;1.65;;;1.05;;
42110;SDS011;27766;52.174;5.456;2023-02-28T09:44:39;2.60;;;1.38;;
42110;SDS011;27766;52.174;5.456;2023-02-28T09:47:13;2.25;;;1.05;;
42110;SDS011;27766;52.174;5.456;2023-02-28T09:49:48;2.78;;;1.50;;
42110;SDS011;27766;52.174;5.456;2023-02-28T09:52:19;1.38;;;0.93;;
42110;SDS011;27766;52.174;5.456;2023-02-28T09:54:51;3.90;;;1.23;;
42110;SDS011;27766;52.174;5.456;2023-02-28T09:57:21;1.70;;;1.23;;
42110;SDS011;27766;52.174;5.456;2023-02-28T10:03:09;1.25;;;0.98;;
42110;SDS011;27766;52.174;5.456;2023-02-28T10:08:32;3.05;;;1.13;;
42110;SDS011;27766;52.174;5.456;2023-02-28T10:11:09;1.48;;;1.15;;
42110;SDS011;27766;52.174;5.456;2023-02-28T10:16:25;1.73;;;1.30;;
42110;SDS011;27766;52.174;5.456;2023-02-28T10:19:40;1.83;;;1.30;;
42110;SDS011;27766;52.174;5.456;2023-02-28T10:22:35;1.63;;;1.15;;
42110;SDS011;27766;52.174;5.456;2023-02-28T10:25:05;3.20;;;1.55;;
42110;SDS011;27766;52.174;5.456;2023-02-28T10:27:45;2.53;;;1.45;;
42110;SDS011;27766;52.174;5.456;2023-02-28T10:30:12;2.03;;;1.13;;
42110;SDS011;27766;52.174;5.456;2023-02-28T10:32:41;1.63;;;1.10;;
42110;SDS011;27766;52.174;5.456;2023-02-28T10:37:45;1.95;;;1.20;;
42110;SDS011;27766;52.174;5.456;2023-02-28T10:42:57;2.13;;;1.00;;
42110;SDS011;27766;52.174;5.456;2023-02-28T10:45:33;1.77;;;1.08;;
42110;SDS011;27766;52.174;5.456;2023-02-28T10:48:05;1.90;;;1.20;;
42110;SDS011;27766;52.174;5.456;2023-02-28T10:50:53;1.90;;;1.10;;
42110;SDS011;27766;52.174;5.456;2023-02-28T10:56:01;1.13;;;1.02;;
42110;SDS011;27766;52.174;5.456;2023-02-28T11:03:59;1.70;;;1.27;;
42110;SDS011;27766;52.174;5.456;2023-02-28T11:06:30;2.20;;;1.27;;
42110;SDS011;27766;52.174;5.456;2023-02-28T11:09:23;1.63;;;1.27;;
42110;SDS011;27766;52.174;5.456;2023-02-28T11:12:00;1.70;;;1.00;;
42110;SDS011;27766;52.174;5.456;2023-02-28T11:14:30;2.47;;;1.20;;
42110;SDS011;27766;52.174;5.456;2023-02-28T11:17:03;1.60;;;1.02;;
42110;SDS011;27766;52.174;5.456;2023-02-28T11:19:44;2.05;;;1.20;;
42110;SDS011;27766;52.174;5.456;2023-02-28T11:22:17;1.60;;;1.17;;
42110;SDS011;27766;52.174;5.456;2023-02-28T11:27:44;3.22;;;1.10;;
42110;SDS011;27766;52.174;5.456;2023-02-28T11:30:35;4.90;;;1.17;;
42110;SDS011;27766;52.174;5.456;2023-02-28T11:36:03;1.45;;;1.23;;
42110;SDS011;27766;52.174;5.456;2023-02-28T11:38:36;2.20;;;1.40;;
42110;SDS011;27766;52.174;5.456;2023-02-28T11:41:13;2.05;;;1.27;;
42110;SDS011;27766;52.174;5.456;2023-02-28T11:46:31;1.63;;;1.20;;
42110;SDS011;27766;52.174;5.456;2023-02-28T12:03:16;1.38;;;0.95;;
42110;SDS011;27766;52.174;5.456;2023-02-28T12:05:45;1.85;;;1.00;;
42110;SDS011;27766;52.174;5.456;2023-02-28T12:13:37;1.23;;;1.02;;
42110;SDS011;27766;52.174;5.456;2023-02-28T12:18:48;6.93;;;1.10;;
42110;SDS011;27766;52.174;5.456;2023-02-28T12:24:50;2.33;;;1.20;;
42110;SDS011;27766;52.174;5.456;2023-02-28T12:27:23;1.63;;;1.13;;
42110;SDS011;27766;52.174;5.456;2023-02-28T12:29:56;1.63;;;1.15;;
42110;SDS011;27766;52.174;5.456;2023-02-28T12:32:30;2.35;;;1.38;;
42110;SDS011;27766;52.174;5.456;2023-02-28T12:35:06;2.10;;;1.27;;
42110;SDS011;27766;52.174;5.456;2023-02-28T12:40:15;2.45;;;1.38;;
42110;SDS011;27766;52.174;5.456;2023-02-28T12:42:47;3.05;;;1.40;;
42110;SDS011;27766;52.174;5.456;2023-02-28T12:45:18;1.25;;;1.00;;
42110;SDS011;27766;52.174;5.456;2023-02-28T12:47:59;1.70;;;1.30;;
42110;SDS011;27766;52.174;5.456;2023-02-28T12:50:30;1.30;;;1.10;;
42110;SDS011;27766;52.174;5.456;2023-02-28T12:56:02;4.60;;;1.38;;
42110;SDS011;27766;52.174;5.456;2023-02-28T13:09:40;2.88;;;1.50;;
42110;SDS011;27766;52.174;5.456;2023-02-28T13:12:17;1.23;;;0.95;;
42110;SDS011;27766;52.174;5.456;2023-02-28T13:14:44;2.42;;;1.23;;
42110;SDS011;27766;52.174;5.456;2023-02-28T13:17:13;4.45;;;1.65;;
42110;SDS011;27766;52.174;5.456;2023-02-28T13:19:56;1.92;;;1.63;;
42110;SDS011;27766;52.174;5.456;2023-02-28T13:24:53;3.40;;;1.55;;
42110;SDS011;27766;52.174;5.456;2023-02-28T13:27:24;1.25;;;1.13;;
42110;SDS011;27766;52.174;5.456;2023-02-28T13:35:48;2.30;;;1.40;;
42110;SDS011;27766;52.174;5.456;2023-02-28T13:38:17;2.72;;;1.63;;
42110;SDS011;27766;52.174;5.456;2023-02-28T13:40:50;2.97;;;1.60;;
42110;SDS011;27766;52.174;5.456;2023-02-28T13:43:17;2.65;;;1.63;;
42110;SDS011;27766;52.174;5.456;2023-02-28T13:48:54;2.40;;;1.52;;
42110;SDS011;27766;52.174;5.456;2023-02-28T13:51:35;3.90;;;2.03;;
42110;SDS011;27766;52.174;5.456;2023-02-28T13:54:16;2.97;;;1.85;;
42110;SDS011;27766;52.174;5.456;2023-02-28T14:03:01;1.67;;;1.08;;
42110;SDS011;27766;52.174;5.456;2023-02-28T14:05:40;2.15;;;1.45;;
42110;SDS011;27766;52.174;5.456;2023-02-28T14:08:12;2.33;;;1.38;;
42110;SDS011;27766;52.174;5.456;2023-02-28T14:10:44;2.83;;;1.23;;
42110;SDS011;27766;52.174;5.456;2023-02-28T14:16:17;1.95;;;1.38;;
42110;SDS011;27766;52.174;5.456;2023-02-28T14:19:09;1.63;;;1.30;;
42110;SDS011;27766;52.174;5.456;2023-02-28T14:21:46;1.80;;;1.30;;
42110;SDS011;27766;52.174;5.456;2023-02-28T14:27:42;2.53;;;1.35;;
42110;SDS011;27766;52.174;5.456;2023-02-28T14:35:50;2.47;;;1.17;;
42110;SDS011;27766;52.174;5.456;2023-02-28T14:43:57;1.85;;;1.35;;
42110;SDS011;27766;52.174;5.456;2023-02-28T14:46:28;1.90;;;1.10;;
42110;SDS011;27766;52.174;5.456;2023-02-28T14:49:03;1.52;;;1.00;;
42110;SDS011;27766;52.174;5.456;2023-02-28T14:51:32;3.08;;;1.33;;
42110;SDS011;27766;52.174;5.456;2023-02-28T14:54:00;2.70;;;1.20;;
42110;SDS011;27766;52.174;5.456;2023-02-28T14:56:32;2.28;;;1.33;;
42110;SDS011;27766;52.174;5.456;2023-02-28T14:59:02;1.30;;;1.20;;
42110;SDS011;27766;52.174;5.456;2023-02-28T15:01:30;1.50;;;1.15;;
42110;SDS011;27766;52.174;5.456;2023-02-28T15:04:00;2.10;;;1.38;;
42110;SDS011;27766;52.174;5.456;2023-02-28T15:06:32;1.40;;;1.30;;
42110;SDS011;27766;52.174;5.456;2023-02-28T15:09:10;2.30;;;1.48;;
42110;SDS011;27766;52.174;5.456;2023-02-28T15:11:45;2.72;;;1.40;;
42110;SDS011;27766;52.174;5.456;2023-02-28T15:14:17;1.67;;;1.35;;
42110;SDS011;27766;52.174;5.456;2023-02-28T15:16:48;2.58;;;1.67;;
42110;SDS011;27766;52.174;5.456;2023-02-28T15:19:24;2.30;;;1.55;;
42110;SDS011;27766;52.174;5.456;2023-02-28T15:21:59;3.05;;;1.73;;
42110;SDS011;27766;52.174;5.456;2023-02-28T15:24:32;5.72;;;1.45;;
42110;SDS011;27766;52.174;5.456;2023-02-28T15:27:05;1.73;;;1.10;;
42110;SDS011;27766;52.174;5.456;2023-02-28T15:29:43;2.30;;;1.60;;
42110;SDS011;27766;52.174;5.456;2023-02-28T15:34:50;2.13;;;1.70;;
42110;SDS011;27766;52.174;5.456;2023-02-28T15:40:30;2.30;;;1.65;;
42110;SDS011;27766;52.174;5.456;2023-02-28T15:48:05;1.77;;;1.23;;
42110;SDS011;27766;52.174;5.456;2023-02-28T15:50:40;2.45;;;1.30;;
42110;SDS011;27766;52.174;5.456;2023-02-28T15:53:12;3.05;;;1.40;;
42110;SDS011;27766;52.174;5.456;2023-02-28T15:55:45;2.00;;;1.35;;
42110;SDS011;27766;52.174;5.456;2023-02-28T15:58:19;1.92;;;1.65;;
42110;SDS011;27766;52.174;5.456;2023-02-28T16:00:59;1.77;;;1.58;;
42110;SDS011;27766;52.174;5.456;2023-02-28T16:03:45;2.75;;;1.67;;
42110;SDS011;27766;52.174;5.456;2023-02-28T16:06:24;3.08;;;1.63;;
42110;SDS011;27766;52.174;5.456;2023-02-28T16:09:00;3.50;;;1.70;;
42110;SDS011;27766;52.174;5.456;2023-02-28T16:11:28;2.65;;;1.75;;
42110;SDS011;27766;52.174;5.456;2023-02-28T16:13:56;3.25;;;2.13;;
42110;SDS011;27766;52.174;5.456;2023-02-28T16:16:24;2.80;;;1.45;;
42110;SDS011;27766;52.174;5.456;2023-02-28T16:18:53;2.20;;;1.70;;
42110;SDS011;27766;52.174;5.456;2023-02-28T16:21:25;3.03;;;1.90;;
42110;SDS011;27766;52.174;5.456;2023-02-28T16:23:54;2.67;;;1.58;;
42110;SDS011;27766;52.174;5.456;2023-02-28T16:26:21;2.67;;;1.70;;
42110;SDS011;27766;52.174;5.456;2023-02-28T16:28:51;5.03;;;3.25;;
42110;SDS011;27766;52.174;5.456;2023-02-28T16:31:19;4.22;;;2.22;;
42110;SDS011;27766;52.174;5.456;2023-02-28T16:33:46;5.72;;;2.10;;
42110;SDS011;27766;52.174;5.456;2023-02-28T16:36:18;2.03;;;1.75;;
42110;SDS011;27766;52.174;5.456;2023-02-28T16:38:47;2.05;;;1.63;;
42110;SDS011;27766;52.174;5.456;2023-02-28T16:41:16;2.03;;;1.63;;
42110;SDS011;27766;52.174;5.456;2023-02-28T16:43:47;4.53;;;1.80;;
42110;SDS011;27766;52.174;5.456;2023-02-28T16:46:16;2.05;;;1.58;;
42110;SDS011;27766;52.174;5.456;2023-02-28T16:48:44;3.72;;;2.30;;
42110;SDS011;27766;52.174;5.456;2023-02-28T16:51:13;3.70;;;2.75;;
42110;SDS011;27766;52.174;5.456;2023-02-28T16:53:41;8.30;;;2.15;;
42110;SDS011;27766;52.174;5.456;2023-02-28T16:56:14;3.42;;;2.40;;
42110;SDS011;27766;52.174;5.456;2023-02-28T16:58:43;3.20;;;1.75;;
42110;SDS011;27766;52.174;5.456;2023-02-28T17:01:11;3.45;;;2.33;;
42110;SDS011;27766;52.174;5.456;2023-02-28T17:03:38;3.83;;;2.22;;
42110;SDS011;27766;52.174;5.456;2023-02-28T17:06:15;3.63;;;2.10;;
42110;SDS011;27766;52.174;5.456;2023-02-28T17:08:45;3.90;;;2.63;;
42110;SDS011;27766;52.174;5.456;2023-02-28T17:11:12;4.97;;;2.42;;
42110;SDS011;27766;52.174;5.456;2023-02-28T17:13:40;4.03;;;2.42;;
42110;SDS011;27766;52.174;5.456;2023-02-28T17:16:10;3.58;;;2.85;;
42110;SDS011;27766;52.174;5.456;2023-02-28T17:18:47;5.60;;;2.70;;
42110;SDS011;27766;52.174;5.456;2023-02-28T17:21:14;4.78;;;2.45;;
42110;SDS011;27766;52.174;5.456;2023-02-28T17:23:43;5.00;;;2.63;;
42110;SDS011;27766;52.174;5.456;2023-02-28T17:26:14;3.63;;;2.33;;
42110;SDS011;27766;52.174;5.456;2023-02-28T17:28:44;6.13;;;2.55;;
42110;SDS011;27766;52.174;5.456;2023-02-28T17:31:11;3.15;;;2.45;;
42110;SDS011;27766;52.174;5.456;2023-02-28T17:33:38;3.35;;;2.22;;
42110;SDS011;27766;52.174;5.456;2023-02-28T17:36:06;3.72;;;3.03;;
42110;SDS011;27766;52.174;5.456;2023-02-28T17:38:36;3.03;;;2.35;;
42110;SDS011;27766;52.174;5.456;2023-02-28T17:41:03;4.95;;;2.92;;
42110;SDS011;27766;52.174;5.456;2023-02-28T17:43:30;5.63;;;3.05;;
42110;SDS011;27766;52.174;5.456;2023-02-28T17:45:58;4.70;;;3.05;;
42110;SDS011;27766;52.174;5.456;2023-02-28T17:48:25;5.10;;;2.70;;
42110;SDS011;27766;52.174;5.456;2023-02-28T17:50:53;5.03;;;2.85;;
42110;SDS011;27766;52.174;5.456;2023-02-28T17:53:20;5.10;;;3.00;;